sensor_id;sensor_type;location;lat;lon;timestamp;pressure;altitude;pressure_sealevel;temperature;humidity
39954;BME280;25631;51.516;-0.470;2024-03-17T00:01:28;101621.73;;;8.87;43.11
39954;BME280;25631;51.516;-0.470;2024-03-17T00:04:05;101618.66;;;9.11;43.09
39954;BME280;25631;51.516;-0.470;2024-03-17T00:06:41;101614.77;;;8.96;43.22
39954;BME280;25631;51.516;-0.470;2024-03-17T00:09:17;101604.36;;;9.31;43.40
39954;BME280;25631;51.516;-0.470;2024-03-17T00:11:54;101595.70;;;9.28;43.39
39954;BME280;25631;51.516;-0.470;2024-03-17T00:14:30;101590.54;;;9.27;43.57
39954;BME280;25631;51.516;-0.470;2024-03-17T00:17:07;101590.62;;;9.03;43.53
39954;BME280;25631;51.516;-0.470;2024-03-17T00:19:43;101585.51;;;8.96;43.60
39954;BME280;25631;51.516;-0.470;2024-03-17T00:22:19;101578.16;;;9.24;43.61
39954;BME280;25631;51.516;-0.470;2024-03-17T00:24:56;101581.46;;;9.25;43.65
39954;BME280;25631;51.516;-0.470;2024-03-17T00:27:32;101578.24;;;9.03;43.74
39954;BME280;25631;51.516;-0.470;2024-03-17T00:30:09;101578.60;;;9.26;43.86
39954;BME280;25631;51.516;-0.470;2024-03-17T00:32:46;101572.45;;;9.06;43.78
39954;BME280;25631;51.516;-0.470;2024-03-17T00:35:22;101563.83;;;9.25;43.81
39954;BME280;25631;51.516;-0.470;2024-03-17T00:37:59;101555.85;;;9.14;43.98
39954;BME280;25631;51.516;-0.470;2024-03-17T00:40:35;101546.88;;;9.10;43.94
39954;BME280;25631;51.516;-0.470;2024-03-17T00:43:11;101548.29;;;9.38;44.05
39954;BME280;25631;51.516;-0.470;2024-03-17T00:45:51;101550.30;;;9.10;44.12
39954;BME280;25631;51.516;-0.470;2024-03-17T00:48:27;101555.32;;;9.31;44.14
39954;BME280;25631;51.516;-0.470;2024-03-17T00:51:04;101555.34;;;9.08;44.26
39954;BME280;25631;51.516;-0.470;2024-03-17T00:53:41;101552.74;;;9.53;44.09
39954;BME280;25631;51.516;-0.470;2024-03-17T00:56:17;101554.06;;;9.32;44.17
39954;BME280;25631;51.516;-0.470;2024-03-17T00:58:54;101563.64;;;9.06;44.16
39954;BME280;25631;51.516;-0.470;2024-03-17T01:01:30;101560.19;;;9.20;44.25
39954;BME280;25631;51.516;-0.470;2024-03-17T01:04:06;101555.31;;;9.40;44.26
39954;BME280;25631;51.516;-0.470;2024-03-17T01:06:43;101552.81;;;9.28;44.25
39954;BME280;25631;51.516;-0.470;2024-03-17T01:09:19;101551.72;;;9.31;44.03
39954;BME280;25631;51.516;-0.470;2024-03-17T01:11:55;101547.83;;;9.54;44.00
39954;BME280;25631;51.516;-0.470;2024-03-17T01:14:32;101543.31;;;9.47;43.99
39954;BME280;25631;51.516;-0.470;2024-03-17T01:17:17;101543.60;;;9.57;44.01
39954;BME280;25631;51.516;-0.470;2024-03-17T01:19:53;101539.87;;;9.09;43.77
39954;BME280;25631;51.516;-0.470;2024-03-17T01:22:30;101533.09;;;9.32;43.76
39954;BME280;25631;51.516;-0.470;2024-03-17T01:25:07;101530.57;;;9.24;43.73
39954;BME280;25631;51.516;-0.470;2024-03-17T01:27:47;101524.12;;;9.53;43.48
39954;BME280;25631;51.516;-0.470;2024-03-17T01:30:23;101517.71;;;9.57;43.33
39954;BME280;25631;51.516;-0.470;2024-03-17T01:33:02;101513.09;;;9.60;43.28
39954;BME280;25631;51.516;-0.470;2024-03-17T01:35:39;101511.86;;;9.73;43.31
39954;BME280;25631;51.516;-0.470;2024-03-17T01:38:16;101506.58;;;9.56;43.38
39954;BME280;25631;51.516;-0.470;2024-03-17T01:40:52;101504.60;;;9.65;43.42
39954;BME280;25631;51.516;-0.470;2024-03-17T01:43:30;101503.75;;;9.55;43.54
39954;BME280;25631;51.516;-0.470;2024-03-17T01:46:12;101499.82;;;9.81;43.70
39954;BME280;25631;51.516;-0.470;2024-03-17T01:48:49;101494.05;;;9.47;43.70
39954;BME280;25631;51.516;-0.470;2024-03-17T01:51:26;101490.84;;;9.62;43.42
39954;BME280;25631;51.516;-0.470;2024-03-17T01:54:03;101485.59;;;9.67;43.41
39954;BME280;25631;51.516;-0.470;2024-03-17T01:56:40;101482.51;;;9.84;43.39
39954;BME280;25631;51.516;-0.470;2024-03-17T01:59:17;101482.40;;;9.83;43.38
39954;BME280;25631;51.516;-0.470;2024-03-17T02:01:53;101483.61;;;10.18;43.37
39954;BME280;25631;51.516;-0.470;2024-03-17T02:04:30;101485.46;;;10.21;43.27
39954;BME280;25631;51.516;-0.470;2024-03-17T02:07:07;101480.79;;;10.17;43.22
39954;BME280;25631;51.516;-0.470;2024-03-17T02:09:43;101473.85;;;10.07;43.14
39954;BME280;25631;51.516;-0.470;2024-03-17T02:12:19;101468.51;;;10.22;43.13
39954;BME280;25631;51.516;-0.470;2024-03-17T02:14:56;101469.40;;;10.04;42.97
39954;BME280;25631;51.516;-0.470;2024-03-17T02:17:33;101469.50;;;10.48;42.94
39954;BME280;25631;51.516;-0.470;2024-03-17T02:20:10;101460.91;;;10.31;43.06
39954;BME280;25631;51.516;-0.470;2024-03-17T02:22:47;101456.26;;;10.41;43.10
39954;BME280;25631;51.516;-0.470;2024-03-17T02:25:23;101451.76;;;10.18;43.22
39954;BME280;25631;51.516;-0.470;2024-03-17T02:28:01;101452.20;;;10.31;43.31
39954;BME280;25631;51.516;-0.470;2024-03-17T02:30:38;101445.22;;;10.09;43.34
39954;BME280;25631;51.516;-0.470;2024-03-17T02:33:17;101444.14;;;10.09;43.57
39954;BME280;25631;51.516;-0.470;2024-03-17T02:35:54;101439.22;;;10.16;43.57
39954;BME280;25631;51.516;-0.470;2024-03-17T02:38:38;101430.93;;;10.24;43.53
39954;BME280;25631;51.516;-0.470;2024-03-17T02:41:17;101427.28;;;10.33;43.54
39954;BME280;25631;51.516;-0.470;2024-03-17T02:43:56;101429.22;;;10.43;43.51
39954;BME280;25631;51.516;-0.470;2024-03-17T02:46:33;101429.37;;;10.39;43.54
39954;BME280;25631;51.516;-0.470;2024-03-17T02:49:11;101426.64;;;10.28;43.71
39954;BME280;25631;51.516;-0.470;2024-03-17T02:51:49;101418.97;;;10.46;43.62
39954;BME280;25631;51.516;-0.470;2024-03-17T02:54:26;101419.30;;;10.46;43.67
39954;BME280;25631;51.516;-0.470;2024-03-17T02:57:05;101419.88;;;10.54;43.63
39954;BME280;25631;51.516;-0.470;2024-03-17T02:59:42;101417.28;;;10.11;43.83
39954;BME280;25631;51.516;-0.470;2024-03-17T03:02:18;101415.00;;;10.50;43.69
39954;BME280;25631;51.516;-0.470;2024-03-17T03:04:56;101416.13;;;10.27;43.77
39954;BME280;25631;51.516;-0.470;2024-03-17T03:07:34;101413.85;;;10.43;43.92
39954;BME280;25631;51.516;-0.470;2024-03-17T03:10:11;101409.51;;;10.42;43.98
39954;BME280;25631;51.516;-0.470;2024-03-17T03:12:49;101407.89;;;10.38;44.16
39954;BME280;25631;51.516;-0.470;2024-03-17T03:15:26;101406.21;;;10.17;44.18
39954;BME280;25631;51.516;-0.470;2024-03-17T03:18:04;101405.53;;;10.36;44.16
39954;BME280;25631;51.516;-0.470;2024-03-17T03:20:41;101401.02;;;10.54;44.17
39954;BME280;25631;51.516;-0.470;2024-03-17T03:23:17;101396.32;;;10.62;44.18
39954;BME280;25631;51.516;-0.470;2024-03-17T03:25:55;101391.07;;;9.68;44.23
39954;BME280;25631;51.516;-0.470;2024-03-17T03:28:32;101389.31;;;10.47;44.10
39954;BME280;25631;51.516;-0.470;2024-03-17T03:31:11;101384.84;;;10.39;44.00
39954;BME280;25631;51.516;-0.470;2024-03-17T03:33:49;101375.79;;;10.85;44.08
39954;BME280;25631;51.516;-0.470;2024-03-17T03:36:26;101370.67;;;10.38;44.12
39954;BME280;25631;51.516;-0.470;2024-03-17T03:39:03;101372.85;;;10.81;44.19
39954;BME280;25631;51.516;-0.470;2024-03-17T03:41:40;101380.05;;;10.70;44.26
39954;BME280;25631;51.516;-0.470;2024-03-17T03:44:17;101379.51;;;10.83;44.40
39954;BME280;25631;51.516;-0.470;2024-03-17T03:46:54;101371.97;;;10.86;44.49
39954;BME280;25631;51.516;-0.470;2024-03-17T03:49:31;101362.27;;;10.64;44.54
39954;BME280;25631;51.516;-0.470;2024-03-17T03:52:08;101361.97;;;10.87;44.55
39954;BME280;25631;51.516;-0.470;2024-03-17T03:54:44;101360.65;;;10.49;44.73
39954;BME280;25631;51.516;-0.470;2024-03-17T03:57:21;101358.96;;;10.63;44.83
39954;BME280;25631;51.516;-0.470;2024-03-17T03:59:57;101353.86;;;10.53;44.89
39954;BME280;25631;51.516;-0.470;2024-03-17T04:02:33;101351.78;;;10.63;44.92
39954;BME280;25631;51.516;-0.470;2024-03-17T04:05:10;101350.02;;;10.65;45.09
39954;BME280;25631;51.516;-0.470;2024-03-17T04:07:47;101340.39;;;10.53;45.07
39954;BME280;25631;51.516;-0.470;2024-03-17T04:10:24;101335.51;;;10.47;45.11
39954;BME280;25631;51.516;-0.470;2024-03-17T04:13:01;101335.61;;;10.57;45.19
39954;BME280;25631;51.516;-0.470;2024-03-17T04:15:38;101329.14;;;10.57;45.29
39954;BME280;25631;51.516;-0.470;2024-03-17T04:18:15;101329.56;;;10.46;45.33
39954;BME280;25631;51.516;-0.470;2024-03-17T04:20:52;101326.97;;;10.41;45.30
39954;BME280;25631;51.516;-0.470;2024-03-17T04:23:30;101325.85;;;10.62;45.28
39954;BME280;25631;51.516;-0.470;2024-03-17T04:26:13;101328.26;;;10.48;45.44
39954;BME280;25631;51.516;-0.470;2024-03-17T04:28:50;101325.38;;;10.44;45.50
39954;BME280;25631;51.516;-0.470;2024-03-17T04:31:26;101324.53;;;10.36;45.43
39954;BME280;25631;51.516;-0.470;2024-03-17T04:34:03;101323.55;;;10.43;45.47
39954;BME280;25631;51.516;-0.470;2024-03-17T04:36:39;101320.87;;;10.39;45.55
39954;BME280;25631;51.516;-0.470;2024-03-17T04:39:16;101314.17;;;10.32;45.50
39954;BME280;25631;51.516;-0.470;2024-03-17T04:41:53;101310.87;;;10.50;45.57
39954;BME280;25631;51.516;-0.470;2024-03-17T04:44:29;101311.00;;;10.28;45.60
39954;BME280;25631;51.516;-0.470;2024-03-17T04:47:06;101309.64;;;10.45;45.54
39954;BME280;25631;51.516;-0.470;2024-03-17T04:49:43;101310.42;;;10.40;45.43
39954;BME280;25631;51.516;-0.470;2024-03-17T04:52:20;101309.36;;;10.42;45.46
39954;BME280;25631;51.516;-0.470;2024-03-17T04:54:56;101310.79;;;10.41;45.47
39954;BME280;25631;51.516;-0.470;2024-03-17T04:57:33;101308.84;;;10.42;45.49
39954;BME280;25631;51.516;-0.470;2024-03-17T05:00:11;101309.80;;;10.59;45.43
39954;BME280;25631;51.516;-0.470;2024-03-17T05:02:47;101305.19;;;10.24;45.46
39954;BME280;25631;51.516;-0.470;2024-03-17T05:05:24;101304.48;;;10.47;45.32
39954;BME280;25631;51.516;-0.470;2024-03-17T05:08:00;101300.45;;;10.59;45.33
39954;BME280;25631;51.516;-0.470;2024-03-17T05:10:36;101299.37;;;10.38;45.43
39954;BME280;25631;51.516;-0.470;2024-03-17T05:13:13;101295.92;;;10.53;45.45
39954;BME280;25631;51.516;-0.470;2024-03-17T05:15:49;101291.82;;;10.52;45.49
39954;BME280;25631;51.516;-0.470;2024-03-17T05:18:26;101294.92;;;10.55;45.48
39954;BME280;25631;51.516;-0.470;2024-03-17T05:21:04;101297.23;;;10.62;45.47
39954;BME280;25631;51.516;-0.470;2024-03-17T05:23:41;101297.47;;;10.67;45.41
39954;BME280;25631;51.516;-0.470;2024-03-17T05:26:17;101295.95;;;10.72;45.36
39954;BME280;25631;51.516;-0.470;2024-03-17T05:28:54;101296.64;;;10.61;45.40
39954;BME280;25631;51.516;-0.470;2024-03-17T05:31:30;101298.86;;;10.46;45.47
39954;BME280;25631;51.516;-0.470;2024-03-17T05:34:07;101295.02;;;10.45;45.47
39954;BME280;25631;51.516;-0.470;2024-03-17T05:36:44;101299.90;;;10.63;45.52
39954;BME280;25631;51.516;-0.470;2024-03-17T05:39:20;101299.91;;;10.63;45.55
39954;BME280;25631;51.516;-0.470;2024-03-17T05:41:57;101300.26;;;10.59;45.59
39954;BME280;25631;51.516;-0.470;2024-03-17T05:44:33;101299.28;;;10.40;45.60
39954;BME280;25631;51.516;-0.470;2024-03-17T05:47:09;101300.04;;;10.59;45.63
39954;BME280;25631;51.516;-0.470;2024-03-17T05:49:46;101301.93;;;10.51;45.63
39954;BME280;25631;51.516;-0.470;2024-03-17T05:52:22;101299.53;;;10.68;45.58
39954;BME280;25631;51.516;-0.470;2024-03-17T05:54:59;101298.40;;;10.50;45.65
39954;BME280;25631;51.516;-0.470;2024-03-17T05:57:35;101301.44;;;10.39;45.46
39954;BME280;25631;51.516;-0.470;2024-03-17T06:00:12;101300.29;;;10.68;45.44
39954;BME280;25631;51.516;-0.470;2024-03-17T06:02:49;101298.89;;;10.29;45.56
39954;BME280;25631;51.516;-0.470;2024-03-17T06:05:26;101297.94;;;10.58;45.60
39954;BME280;25631;51.516;-0.470;2024-03-17T06:08:04;101296.93;;;10.35;45.72
39954;BME280;25631;51.516;-0.470;2024-03-17T06:10:44;101298.70;;;10.15;45.84
39954;BME280;25631;51.516;-0.470;2024-03-17T06:13:20;101294.97;;;10.36;45.85
39954;BME280;25631;51.516;-0.470;2024-03-17T06:15:57;101291.40;;;9.75;45.90
39954;BME280;25631;51.516;-0.470;2024-03-17T06:18:33;101288.60;;;10.43;45.83
39954;BME280;25631;51.516;-0.470;2024-03-17T06:21:09;101286.40;;;10.47;45.78
39954;BME280;25631;51.516;-0.470;2024-03-17T06:23:46;101286.22;;;10.53;45.83
39954;BME280;25631;51.516;-0.470;2024-03-17T06:26:22;101289.86;;;10.49;45.82
39954;BME280;25631;51.516;-0.470;2024-03-17T06:28:58;101288.30;;;10.44;46.00
39954;BME280;25631;51.516;-0.470;2024-03-17T06:31:35;101290.81;;;10.53;45.89
39954;BME280;25631;51.516;-0.470;2024-03-17T06:34:11;101290.37;;;10.52;45.88
39954;BME280;25631;51.516;-0.470;2024-03-17T06:36:48;101287.67;;;10.58;45.82
39954;BME280;25631;51.516;-0.470;2024-03-17T06:39:24;101287.63;;;10.46;45.82
39954;BME280;25631;51.516;-0.470;2024-03-17T06:42:00;101283.34;;;10.76;45.75
39954;BME280;25631;51.516;-0.470;2024-03-17T06:44:37;101277.70;;;10.57;45.80
39954;BME280;25631;51.516;-0.470;2024-03-17T06:47:13;101275.03;;;10.53;45.81
39954;BME280;25631;51.516;-0.470;2024-03-17T06:49:50;101272.96;;;10.56;45.51
39954;BME280;25631;51.516;-0.470;2024-03-17T06:52:26;101271.48;;;10.64;45.57
39954;BME280;25631;51.516;-0.470;2024-03-17T06:55:03;101272.06;;;10.74;45.61
39954;BME280;25631;51.516;-0.470;2024-03-17T06:57:41;101268.49;;;10.87;45.73
39954;BME280;25631;51.516;-0.470;2024-03-17T07:00:18;101270.98;;;10.75;45.77
39954;BME280;25631;51.516;-0.470;2024-03-17T07:02:54;101268.07;;;11.00;45.74
39954;BME280;25631;51.516;-0.470;2024-03-17T07:05:31;101268.75;;;10.59;45.77
39954;BME280;25631;51.516;-0.470;2024-03-17T07:08:07;101266.56;;;10.98;45.74
39954;BME280;25631;51.516;-0.470;2024-03-17T07:10:43;101266.08;;;10.88;45.67
39954;BME280;25631;51.516;-0.470;2024-03-17T07:13:20;101266.56;;;10.93;45.61
39954;BME280;25631;51.516;-0.470;2024-03-17T07:15:56;101264.94;;;10.93;45.76
39954;BME280;25631;51.516;-0.470;2024-03-17T07:18:34;101261.69;;;10.79;45.85
39954;BME280;25631;51.516;-0.470;2024-03-17T07:21:11;101259.03;;;10.55;45.82
39954;BME280;25631;51.516;-0.470;2024-03-17T07:23:47;101255.63;;;11.03;45.80
39954;BME280;25631;51.516;-0.470;2024-03-17T07:26:23;101256.47;;;10.74;45.85
39954;BME280;25631;51.516;-0.470;2024-03-17T07:29:00;101259.58;;;10.74;45.93
39954;BME280;25631;51.516;-0.470;2024-03-17T07:31:36;101256.51;;;10.89;45.97
39954;BME280;25631;51.516;-0.470;2024-03-17T07:34:13;101258.10;;;10.80;45.98
39954;BME280;25631;51.516;-0.470;2024-03-17T07:36:49;101257.34;;;10.89;46.03
39954;BME280;25631;51.516;-0.470;2024-03-17T07:39:25;101255.77;;;10.63;46.03
39954;BME280;25631;51.516;-0.470;2024-03-17T07:42:04;101249.79;;;10.42;45.94
39954;BME280;25631;51.516;-0.470;2024-03-17T07:44:44;101247.77;;;11.11;46.00
39954;BME280;25631;51.516;-0.470;2024-03-17T07:47:20;101243.07;;;10.70;46.16
39954;BME280;25631;51.516;-0.470;2024-03-17T07:49:57;101241.46;;;10.26;46.31
39954;BME280;25631;51.516;-0.470;2024-03-17T07:52:33;101239.99;;;10.75;46.32
39954;BME280;25631;51.516;-0.470;2024-03-17T07:55:09;101232.82;;;10.95;46.38
39954;BME280;25631;51.516;-0.470;2024-03-17T07:57:46;101229.96;;;10.84;46.48
39954;BME280;25631;51.516;-0.470;2024-03-17T08:00:22;101228.97;;;10.87;46.39
39954;BME280;25631;51.516;-0.470;2024-03-17T08:02:59;101229.81;;;10.82;46.47
39954;BME280;25631;51.516;-0.470;2024-03-17T08:05:35;101227.05;;;11.05;46.39
39954;BME280;25631;51.516;-0.470;2024-03-17T08:08:11;101225.15;;;11.17;46.48
39954;BME280;25631;51.516;-0.470;2024-03-17T08:10:48;101220.90;;;10.96;46.48
39954;BME280;25631;51.516;-0.470;2024-03-17T08:13:24;101217.51;;;10.87;46.46
39954;BME280;25631;51.516;-0.470;2024-03-17T08:16:02;101215.90;;;10.83;46.49
39954;BME280;25631;51.516;-0.470;2024-03-17T08:18:39;101212.58;;;11.02;46.47
39954;BME280;25631;51.516;-0.470;2024-03-17T08:21:15;101210.78;;;10.69;46.48
39954;BME280;25631;51.516;-0.470;2024-03-17T08:23:52;101210.60;;;11.08;46.43
39954;BME280;25631;51.516;-0.470;2024-03-17T08:26:28;101208.79;;;10.87;46.44
39954;BME280;25631;51.516;-0.470;2024-03-17T08:29:04;101205.99;;;10.97;46.39
39954;BME280;25631;51.516;-0.470;2024-03-17T08:31:41;101205.26;;;11.33;46.40
39954;BME280;25631;51.516;-0.470;2024-03-17T08:34:18;101205.05;;;11.07;46.43
39954;BME280;25631;51.516;-0.470;2024-03-17T08:36:54;101202.16;;;10.76;46.41
39954;BME280;25631;51.516;-0.470;2024-03-17T08:39:31;101202.50;;;10.90;46.34
39954;BME280;25631;51.516;-0.470;2024-03-17T08:42:07;101200.97;;;11.20;46.29
39954;BME280;25631;51.516;-0.470;2024-03-17T08:44:46;101204.31;;;11.18;46.24
39954;BME280;25631;51.516;-0.470;2024-03-17T08:47:22;101203.07;;;10.93;46.38
39954;BME280;25631;51.516;-0.470;2024-03-17T08:49:58;101202.25;;;11.19;46.41
39954;BME280;25631;51.516;-0.470;2024-03-17T08:52:35;101200.81;;;11.20;46.49
39954;BME280;25631;51.516;-0.470;2024-03-17T08:55:11;101202.45;;;11.11;46.56
39954;BME280;25631;51.516;-0.470;2024-03-17T08:57:47;101201.95;;;10.97;46.72
39954;BME280;25631;51.516;-0.470;2024-03-17T09:00:24;101198.75;;;11.02;46.64
39954;BME280;25631;51.516;-0.470;2024-03-17T09:03:00;101194.77;;;11.21;46.60
39954;BME280;25631;51.516;-0.470;2024-03-17T09:05:37;101193.41;;;11.01;46.51
39954;BME280;25631;51.516;-0.470;2024-03-17T09:08:17;101191.67;;;11.12;46.27
39954;BME280;25631;51.516;-0.470;2024-03-17T09:10:54;101193.15;;;11.20;46.25
39954;BME280;25631;51.516;-0.470;2024-03-17T09:13:30;101189.41;;;11.35;46.11
39954;BME280;25631;51.516;-0.470;2024-03-17T09:16:06;101189.39;;;11.33;46.27
39954;BME280;25631;51.516;-0.470;2024-03-17T09:18:44;101187.09;;;11.37;46.30
39954;BME280;25631;51.516;-0.470;2024-03-17T09:21:21;101187.26;;;11.25;46.31
39954;BME280;25631;51.516;-0.470;2024-03-17T09:23:57;101182.99;;;11.37;46.42
39954;BME280;25631;51.516;-0.470;2024-03-17T09:26:33;101180.71;;;11.25;46.33
39954;BME280;25631;51.516;-0.470;2024-03-17T09:29:10;101177.55;;;11.48;46.46
39954;BME280;25631;51.516;-0.470;2024-03-17T09:31:46;101176.18;;;11.19;46.62
39954;BME280;25631;51.516;-0.470;2024-03-17T09:34:23;101174.34;;;11.30;46.50
39954;BME280;25631;51.516;-0.470;2024-03-17T09:36:59;101175.29;;;11.16;46.64
39954;BME280;25631;51.516;-0.470;2024-03-17T09:39:36;101171.72;;;11.11;46.84
39954;BME280;25631;51.516;-0.470;2024-03-17T09:42:17;101168.32;;;11.11;46.85
39954;BME280;25631;51.516;-0.470;2024-03-17T09:44:54;101167.05;;;11.05;46.83
39954;BME280;25631;51.516;-0.470;2024-03-17T09:47:31;101165.07;;;11.05;47.00
39954;BME280;25631;51.516;-0.470;2024-03-17T09:50:13;101162.09;;;11.09;46.88
39954;BME280;25631;51.516;-0.470;2024-03-17T09:52:50;101154.95;;;11.14;46.84
39954;BME280;25631;51.516;-0.470;2024-03-17T09:55:27;101154.78;;;11.07;46.96
39954;BME280;25631;51.516;-0.470;2024-03-17T09:58:04;101154.48;;;10.80;46.94
39954;BME280;25631;51.516;-0.470;2024-03-17T10:00:43;101149.92;;;10.72;46.95
39954;BME280;25631;51.516;-0.470;2024-03-17T10:03:53;101147.27;;;10.71;47.06
39954;BME280;25631;51.516;-0.470;2024-03-17T10:06:31;101155.67;;;11.01;47.35
39954;BME280;25631;51.516;-0.470;2024-03-17T10:09:15;101156.45;;;10.99;47.38
39954;BME280;25631;51.516;-0.470;2024-03-17T10:11:51;101154.77;;;10.94;47.49
39954;BME280;25631;51.516;-0.470;2024-03-17T10:14:28;101151.55;;;11.24;47.53
39954;BME280;25631;51.516;-0.470;2024-03-17T10:17:04;101157.10;;;11.16;47.62
39954;BME280;25631;51.516;-0.470;2024-03-17T10:19:41;101157.72;;;11.35;47.74
39954;BME280;25631;51.516;-0.470;2024-03-17T10:22:17;101155.83;;;10.98;47.67
39954;BME280;25631;51.516;-0.470;2024-03-17T10:24:59;101152.68;;;11.15;47.74
39954;BME280;25631;51.516;-0.470;2024-03-17T10:27:35;101157.88;;;11.23;47.71
39954;BME280;25631;51.516;-0.470;2024-03-17T10:30:19;101142.02;;;10.99;47.64
39954;BME280;25631;51.516;-0.470;2024-03-17T10:32:57;101131.01;;;10.90;47.67
39954;BME280;25631;51.516;-0.470;2024-03-17T10:35:35;101128.11;;;11.11;47.64
39954;BME280;25631;51.516;-0.470;2024-03-17T10:38:12;101131.68;;;11.13;47.56
39954;BME280;25631;51.516;-0.470;2024-03-17T10:40:49;101134.32;;;11.33;47.44
39954;BME280;25631;51.516;-0.470;2024-03-17T10:43:25;101129.99;;;11.38;47.29
39954;BME280;25631;51.516;-0.470;2024-03-17T10:46:02;101138.08;;;11.29;47.33
39954;BME280;25631;51.516;-0.470;2024-03-17T10:48:39;101142.01;;;11.19;47.39
39954;BME280;25631;51.516;-0.470;2024-03-17T10:51:17;101147.17;;;11.05;47.51
39954;BME280;25631;51.516;-0.470;2024-03-17T10:53:56;101140.98;;;11.24;47.61
39954;BME280;25631;51.516;-0.470;2024-03-17T10:56:34;101136.79;;;11.26;47.53
39954;BME280;25631;51.516;-0.470;2024-03-17T10:59:11;101143.41;;;11.01;47.64
39954;BME280;25631;51.516;-0.470;2024-03-17T11:01:48;101146.51;;;10.88;47.76
39954;BME280;25631;51.516;-0.470;2024-03-17T11:04:25;101142.29;;;11.12;47.79
39954;BME280;25631;51.516;-0.470;2024-03-17T11:07:01;101140.35;;;11.29;47.69
39954;BME280;25631;51.516;-0.470;2024-03-17T11:09:38;101143.02;;;11.37;47.69
39954;BME280;25631;51.516;-0.470;2024-03-17T11:12:40;101140.79;;;11.34;47.80
39954;BME280;25631;51.516;-0.470;2024-03-17T11:15:36;101139.20;;;11.24;47.82
39954;BME280;25631;51.516;-0.470;2024-03-17T11:18:29;101137.21;;;11.18;48.04
39954;BME280;25631;51.516;-0.470;2024-03-17T11:21:19;101134.13;;;11.52;47.99
39954;BME280;25631;51.516;-0.470;2024-03-17T11:23:58;101135.72;;;11.61;48.13
39954;BME280;25631;51.516;-0.470;2024-03-17T11:26:35;101139.36;;;11.12;47.80
39954;BME280;25631;51.516;-0.470;2024-03-17T11:29:26;101138.92;;;12.07;47.55
39954;BME280;25631;51.516;-0.470;2024-03-17T11:32:24;101139.38;;;11.61;47.78
39954;BME280;25631;51.516;-0.470;2024-03-17T11:35:13;101136.85;;;11.99;47.55
39954;BME280;25631;51.516;-0.470;2024-03-17T11:37:50;101136.95;;;12.27;47.17
39954;BME280;25631;51.516;-0.470;2024-03-17T11:40:26;101137.49;;;11.92;47.18
39954;BME280;25631;51.516;-0.470;2024-03-17T11:43:03;101139.43;;;11.86;47.04
39954;BME280;25631;51.516;-0.470;2024-03-17T11:45:40;101134.00;;;12.02;47.04
39954;BME280;25631;51.516;-0.470;2024-03-17T11:48:17;101135.44;;;11.94;46.90
39954;BME280;25631;51.516;-0.470;2024-03-17T11:50:55;101133.29;;;12.01;46.99
39954;BME280;25631;51.516;-0.470;2024-03-17T11:53:32;101132.46;;;11.79;46.87
39954;BME280;25631;51.516;-0.470;2024-03-17T11:56:11;101129.91;;;11.83;46.60
39954;BME280;25631;51.516;-0.470;2024-03-17T11:59:03;101131.09;;;12.16;46.46
39954;BME280;25631;51.516;-0.470;2024-03-17T12:01:40;101131.23;;;12.09;46.35
39954;BME280;25631;51.516;-0.470;2024-03-17T12:04:18;101129.43;;;12.62;46.13
39954;BME280;25631;51.516;-0.470;2024-03-17T12:06:58;101133.67;;;11.96;46.19
39954;BME280;25631;51.516;-0.470;2024-03-17T12:09:34;101131.67;;;11.99;46.13
39954;BME280;25631;51.516;-0.470;2024-03-17T12:12:16;101133.31;;;12.16;46.20
39954;BME280;25631;51.516;-0.470;2024-03-17T12:14:53;101136.16;;;11.87;46.12
39954;BME280;25631;51.516;-0.470;2024-03-17T12:17:29;101135.03;;;12.12;45.65
39954;BME280;25631;51.516;-0.470;2024-03-17T12:20:06;101130.59;;;11.74;45.98
39954;BME280;25631;51.516;-0.470;2024-03-17T12:22:50;101134.09;;;12.16;46.07
39954;BME280;25631;51.516;-0.470;2024-03-17T12:25:26;101127.49;;;11.80;46.11
39954;BME280;25631;51.516;-0.470;2024-03-17T12:28:03;101125.62;;;12.15;46.35
39954;BME280;25631;51.516;-0.470;2024-03-17T12:30:41;101129.34;;;12.42;46.33
39954;BME280;25631;51.516;-0.470;2024-03-17T12:33:17;101133.65;;;11.93;46.19
39954;BME280;25631;51.516;-0.470;2024-03-17T12:35:54;101131.31;;;11.77;45.71
39954;BME280;25631;51.516;-0.470;2024-03-17T12:38:30;101125.60;;;11.90;45.64
39954;BME280;25631;51.516;-0.470;2024-03-17T12:41:16;101124.46;;;12.14;45.57
39954;BME280;25631;51.516;-0.470;2024-03-17T12:43:53;101120.33;;;11.96;45.64
39954;BME280;25631;51.516;-0.470;2024-03-17T12:46:29;101118.14;;;11.80;45.68
39954;BME280;25631;51.516;-0.470;2024-03-17T12:49:05;101115.93;;;11.97;45.77
39954;BME280;25631;51.516;-0.470;2024-03-17T12:51:45;101111.05;;;12.18;45.67
39954;BME280;25631;51.516;-0.470;2024-03-17T12:54:23;101114.46;;;12.26;45.50
39954;BME280;25631;51.516;-0.470;2024-03-17T12:57:08;101110.74;;;11.93;45.61
39954;BME280;25631;51.516;-0.470;2024-03-17T12:59:45;101103.92;;;12.35;45.51
39954;BME280;25631;51.516;-0.470;2024-03-17T13:02:21;101106.33;;;12.25;45.36
39954;BME280;25631;51.516;-0.470;2024-03-17T13:05:17;101103.10;;;12.35;45.60
39954;BME280;25631;51.516;-0.470;2024-03-17T13:07:54;101102.80;;;12.55;45.35
39954;BME280;25631;51.516;-0.470;2024-03-17T13:10:31;101094.78;;;12.68;44.79
39954;BME280;25631;51.516;-0.470;2024-03-17T13:13:08;101098.94;;;12.62;44.35
39954;BME280;25631;51.516;-0.470;2024-03-17T13:15:45;101103.63;;;12.48;44.58
39954;BME280;25631;51.516;-0.470;2024-03-17T13:18:21;101103.50;;;12.68;44.80
39954;BME280;25631;51.516;-0.470;2024-03-17T13:20:57;101103.81;;;12.59;44.69
39954;BME280;25631;51.516;-0.470;2024-03-17T13:23:34;101104.00;;;12.65;44.52
39954;BME280;25631;51.516;-0.470;2024-03-17T13:26:10;101099.56;;;13.04;44.17
39954;BME280;25631;51.516;-0.470;2024-03-17T13:28:46;101095.87;;;12.87;44.04
39954;BME280;25631;51.516;-0.470;2024-03-17T13:31:23;101091.55;;;12.93;43.33
39954;BME280;25631;51.516;-0.470;2024-03-17T13:33:59;101090.20;;;13.28;43.52